Time;durP1;ratioP1;P1;durP2;ratioP2;P2;SDS_P1;SDS_P2;PMS_P1;PMS_P2;Temp;Humidity;BMP_temperature;BMP_pressure;BME280_temperature;BME280_humidity;BME280_pressure;Samples;Min_cycle;Max_cycle;Signal;HPM_P1;HPM_P2
2022/02/24 00:01:20;;;;;;;4.03;1.27;;;8.70;99.90;;;;;;5095723;28;20431;-67
2022/02/24 00:03:46;;;;;;;1.77;0.98;;;8.70;99.90;;;;;;5107307;27;20051;-67
2022/02/24 00:06:12;;;;;;;2.85;1.33;;;8.70;99.90;;;;;;5106224;27;20030;-67
2022/02/24 00:08:38;;;;;;;4.57;1.30;;;8.80;99.90;;;;;;5109676;27;20016;-67
2022/02/24 00:11:03;;;;;;;2.88;1.02;;;8.70;99.90;;;;;;5109359;27;20035;-67
2022/02/24 00:13:29;;;;;;;5.80;1.60;;;8.70;99.90;;;;;;5092532;28;20038;-67
2022/02/24 00:15:54;;;;;;;1.10;0.80;;;8.70;99.90;;;;;;5088390;27;20032;-66
2022/02/24 00:18:20;;;;;;;3.20;1.42;;;8.70;99.90;;;;;;5102115;27;20076;-67
2022/02/24 00:20:46;;;;;;;3.08;1.30;;;8.70;99.90;;;;;;5089281;27;20020;-67
2022/02/24 00:23:11;;;;;;;3.80;1.20;;;8.60;99.90;;;;;;5092413;28;20033;-67
2022/02/24 00:25:37;;;;;;;6.95;1.48;;;8.60;99.90;;;;;;5107640;27;20027;-67
2022/02/24 00:28:02;;;;;;;4.90;1.30;;;8.60;99.90;;;;;;5091103;28;20040;-67
2022/02/24 00:30:28;;;;;;;1.25;0.88;;;8.50;99.90;;;;;;5095052;28;20077;-67
2022/02/24 00:32:54;;;;;;;5.57;2.03;;;8.50;99.90;;;;;;5087879;28;20119;-67
2022/02/24 00:35:19;;;;;;;2.40;1.30;;;8.40;99.90;;;;;;5082378;28;20544;-67
2022/02/24 00:37:45;;;;;;;3.35;1.63;;;8.40;99.90;;;;;;5087357;28;20035;-67
2022/02/24 00:40:11;;;;;;;2.10;1.10;;;8.30;99.90;;;;;;5086052;28;20020;-67
2022/02/24 00:42:38;;;;;;;10.13;1.80;;;8.30;99.90;;;;;;5087740;28;20335;-67
2022/02/24 00:45:04;;;;;;;4.80;1.70;;;8.20;99.90;;;;;;5090916;28;20028;-67
2022/02/24 00:47:30;;;;;;;2.28;1.08;;;8.20;99.90;;;;;;5090735;28;20483;-67
2022/02/24 00:49:55;;;;;;;1.98;1.10;;;8.20;99.90;;;;;;5083764;28;20056;-67
2022/02/24 00:52:21;;;;;;;2.67;1.00;;;8.20;99.90;;;;;;5085611;28;20373;-67
2022/02/24 00:54:48;;;;;;;5.50;1.58;;;8.30;99.90;;;;;;5085172;28;20035;-67
2022/02/24 00:57:14;;;;;;;2.58;1.30;;;8.20;99.90;;;;;;5084473;28;20436;-67
2022/02/24 00:59:40;;;;;;;2.92;1.10;;;8.10;99.90;;;;;;5085066;28;20108;-67
2022/02/24 01:02:05;;;;;;;2.65;1.33;;;8.10;99.90;;;;;;5089646;28;20024;-67
2022/02/24 01:04:31;;;;;;;3.13;1.30;;;8.10;99.90;;;;;;5088384;28;20031;-67
2022/02/24 01:06:56;;;;;;;7.40;1.90;;;8.00;99.90;;;;;;5085599;28;20036;-67
2022/02/24 01:09:22;;;;;;;2.53;1.40;;;8.00;99.90;;;;;;5087536;28;20092;-67
2022/02/24 01:11:48;;;;;;;8.15;2.05;;;8.00;99.90;;;;;;5084603;28;20115;-67
2022/02/24 01:14:14;;;;;;;3.40;1.10;;;7.90;99.90;;;;;;5079786;28;20024;-67
2022/02/24 01:16:40;;;;;;;2.63;0.98;;;7.90;99.90;;;;;;5077559;28;20392;-67
2022/02/24 01:19:05;;;;;;;2.95;1.13;;;8.00;99.90;;;;;;5084267;28;20466;-67
2022/02/24 01:21:32;;;;;;;2.95;1.27;;;8.10;99.90;;;;;;5082925;28;20017;-67
2022/02/24 01:23:57;;;;;;;4.13;1.40;;;8.10;99.90;;;;;;5087865;28;20028;-67
2022/02/24 01:26:23;;;;;;;3.55;1.40;;;8.20;99.90;;;;;;5087291;28;20024;-67
2022/02/24 01:28:49;;;;;;;3.53;1.35;;;8.10;99.90;;;;;;5101631;27;20500;-67
2022/02/24 01:31:14;;;;;;;6.43;1.63;;;8.20;99.90;;;;;;5104964;28;20039;-66
2022/02/24 01:33:41;;;;;;;2.85;1.23;;;8.20;99.90;;;;;;5101089;28;20035;-67
2022/02/24 01:36:06;;;;;;;2.55;1.17;;;8.30;99.90;;;;;;5089518;28;20045;-67
2022/02/24 01:38:32;;;;;;;4.72;2.05;;;8.30;99.90;;;;;;5099317;28;20024;-67
2022/02/24 01:40:57;;;;;;;4.10;1.17;;;8.20;99.90;;;;;;5086597;28;20035;-67
2022/02/24 01:43:23;;;;;;;4.55;1.40;;;8.10;99.90;;;;;;5103706;28;20039;-67
2022/02/24 01:45:49;;;;;;;1.60;1.00;;;8.20;99.90;;;;;;5102500;28;20470;-67
2022/02/24 01:48:15;;;;;;;3.38;1.33;;;8.30;99.90;;;;;;5090307;28;20046;-67
2022/02/24 01:50:41;;;;;;;1.92;1.20;;;8.30;99.90;;;;;;5085757;28;20024;-67
2022/02/24 01:53:06;;;;;;;11.70;1.63;;;8.30;99.90;;;;;;5104201;28;20474;-67
2022/02/24 01:55:32;;;;;;;4.85;1.13;;;8.30;99.90;;;;;;5103884;28;20043;-67
2022/02/24 01:57:58;;;;;;;3.95;1.48;;;8.30;99.90;;;;;;5104983;28;20372;-67
2022/02/24 02:00:23;;;;;;;2.83;1.20;;;8.20;99.90;;;;;;5108649;28;20535;-67
2022/02/24 02:02:49;;;;;;;18.13;1.83;;;8.20;99.90;;;;;;5089269;28;20025;-67
2022/02/24 02:05:15;;;;;;;3.83;1.35;;;8.30;99.90;;;;;;5108840;28;20037;-67
2022/02/24 02:07:41;;;;;;;2.80;1.48;;;8.30;99.90;;;;;;5106927;28;20070;-67
2022/02/24 02:10:07;;;;;;;3.67;1.30;;;8.30;99.90;;;;;;5085366;28;20032;-67
2022/02/24 02:12:44;;;;;;;2.97;1.15;;;8.30;99.90;;;;;;5089367;28;20034;-67
2022/02/24 02:15:10;;;;;;;5.40;1.10;;;8.30;99.90;;;;;;5097745;28;20454;-67
2022/02/24 02:17:36;;;;;;;2.50;1.60;;;8.30;99.90;;;;;;5110192;28;20015;-67
2022/02/24 02:20:01;;;;;;;4.25;1.20;;;8.20;99.90;;;;;;5100356;28;20487;-67
2022/02/24 02:22:27;;;;;;;2.45;1.23;;;8.30;99.90;;;;;;5108998;28;20076;-67
2022/02/24 02:25:00;;;;;;;1.58;0.90;;;8.20;99.90;;;;;;5095622;28;20103;-67
2022/02/24 02:27:25;;;;;;;2.65;1.40;;;8.20;99.90;;;;;;5111011;28;20499;-67
2022/02/24 02:29:51;;;;;;;2.35;1.17;;;8.30;99.90;;;;;;5105925;28;20086;-67
2022/02/24 02:32:16;;;;;;;9.90;1.58;;;8.30;99.90;;;;;;5102914;28;20537;-67
2022/02/24 02:34:42;;;;;;;3.45;1.30;;;8.30;99.90;;;;;;5098841;28;20067;-67
2022/02/24 02:37:08;;;;;;;7.05;1.70;;;8.30;99.90;;;;;;5102041;28;20020;-67
2022/02/24 02:39:33;;;;;;;2.60;1.38;;;8.30;99.90;;;;;;5104050;28;20467;-67
2022/02/24 02:41:59;;;;;;;1.10;0.80;;;8.30;99.90;;;;;;5090961;28;20055;-67
2022/02/24 02:44:25;;;;;;;7.03;2.10;;;8.30;99.90;;;;;;5105121;27;20113;-67
2022/02/24 02:46:50;;;;;;;6.93;1.50;;;8.30;99.90;;;;;;5089600;28;20036;-67
2022/02/24 02:49:16;;;;;;;3.33;1.23;;;8.30;99.90;;;;;;5108303;28;20118;-67
2022/02/24 02:51:41;;;;;;;3.90;1.60;;;8.30;99.90;;;;;;5110211;28;20028;-67
2022/02/24 02:54:07;;;;;;;5.65;1.67;;;8.30;99.90;;;;;;5105245;28;20034;-67
2022/02/24 02:56:33;;;;;;;9.18;1.40;;;8.30;99.90;;;;;;5091918;28;20471;-67
2022/02/24 02:58:58;;;;;;;2.00;1.13;;;8.20;99.90;;;;;;5093332;28;20024;-67
2022/02/24 03:01:24;;;;;;;7.32;1.65;;;8.30;99.90;;;;;;5104867;28;20016;-67
2022/02/24 03:03:49;;;;;;;11.15;1.42;;;8.20;99.90;;;;;;5085559;28;20040;-67
2022/02/24 03:06:15;;;;;;;2.97;1.20;;;8.20;99.90;;;;;;5101820;28;20503;-67
2022/02/24 03:08:41;;;;;;;6.75;0.90;;;8.30;99.90;;;;;;5109162;27;20024;-67
2022/02/24 03:11:06;;;;;;;6.45;2.03;;;8.30;99.90;;;;;;5089420;28;20043;-67
2022/02/24 03:13:34;;;;;;;4.55;1.30;;;8.30;99.90;;;;;;5106620;28;20032;-67
2022/02/24 03:16:00;;;;;;;4.50;1.33;;;8.30;99.90;;;;;;5088209;28;20024;-67
2022/02/24 03:18:25;;;;;;;5.15;0.93;;;8.30;99.90;;;;;;5104185;28;20051;-67
2022/02/24 03:20:51;;;;;;;1.77;1.15;;;8.30;99.90;;;;;;5107680;28;20042;-67
2022/02/24 03:23:16;;;;;;;2.90;1.10;;;8.20;99.90;;;;;;5107997;28;20020;-67
2022/02/24 03:25:42;;;;;;;3.92;1.40;;;8.30;99.90;;;;;;5107137;28;20488;-67
2022/02/24 03:28:08;;;;;;;2.95;1.13;;;8.20;99.90;;;;;;5107864;28;20055;-67
2022/02/24 03:30:34;;;;;;;2.50;1.30;;;8.20;99.90;;;;;;5086060;28;20032;-67
2022/02/24 03:33:02;;;;;;;0.95;0.73;;;8.20;99.90;;;;;;5105575;28;20487;-67
2022/02/24 03:35:28;;;;;;;3.33;1.40;;;8.10;99.90;;;;;;5105700;28;20023;-67
2022/02/24 03:37:53;;;;;;;1.95;1.10;;;8.20;99.90;;;;;;5091720;27;20479;-67
2022/02/24 03:40:19;;;;;;;2.75;1.30;;;8.20;99.90;;;;;;5110716;27;20030;-67
2022/02/24 03:42:48;;;;;;;2.65;1.05;;;8.20;99.90;;;;;;5105162;27;20034;-67
2022/02/24 03:45:14;;;;;;;1.60;1.00;;;8.20;99.90;;;;;;5080276;28;20032;-67
2022/02/24 03:47:40;;;;;;;3.35;1.20;;;8.20;99.90;;;;;;5107788;27;20024;-67
2022/02/24 03:50:07;;;;;;;4.63;1.70;;;8.20;99.90;;;;;;5111452;27;20098;-67
2022/02/24 03:52:32;;;;;;;3.42;1.42;;;8.20;99.90;;;;;;5090978;28;20528;-67
2022/02/24 03:54:58;;;;;;;3.95;1.45;;;8.10;99.90;;;;;;5087915;28;20115;-67
2022/02/24 03:57:24;;;;;;;6.60;1.50;;;8.10;99.90;;;;;;5113147;27;20106;-67
2022/02/24 03:59:49;;;;;;;7.80;1.17;;;8.10;99.90;;;;;;5104319;27;20032;-67
2022/02/24 04:02:15;;;;;;;2.70;1.30;;;8.20;99.90;;;;;;5107786;27;20023;-67
2022/02/24 04:04:42;;;;;;;1.85;1.10;;;8.10;99.90;;;;;;5105058;28;20134;-67
2022/02/24 04:07:07;;;;;;;4.13;1.15;;;8.10;99.90;;;;;;5105328;28;20551;-67
2022/02/24 04:09:33;;;;;;;2.33;1.20;;;8.10;99.90;;;;;;5097695;27;20027;-67
2022/02/24 04:11:59;;;;;;;5.47;1.83;;;8.10;99.90;;;;;;5084761;28;20028;-68
2022/02/24 04:14:25;;;;;;;2.20;1.00;;;8.20;99.90;;;;;;5112807;27;20040;-67
2022/02/24 04:16:51;;;;;;;4.65;1.20;;;8.20;99.90;;;;;;5107957;27;20026;-67
2022/02/24 04:19:16;;;;;;;1.40;0.95;;;8.20;99.90;;;;;;5112329;27;20024;-67
2022/02/24 04:21:43;;;;;;;1.83;0.93;;;8.20;99.90;;;;;;5107144;27;20023;-67
2022/02/24 04:24:09;;;;;;;4.18;1.33;;;8.20;99.90;;;;;;5105681;27;20361;-67
2022/02/24 04:26:34;;;;;;;1.52;1.00;;;8.20;99.90;;;;;;5106924;27;20035;-67
2022/02/24 04:29:01;;;;;;;10.23;1.05;;;8.10;99.90;;;;;;5110660;27;20270;-67
2022/02/24 04:31:27;;;;;;;3.38;1.50;;;8.10;99.90;;;;;;5092405;28;20023;-67
2022/02/24 04:33:52;;;;;;;3.38;1.35;;;8.10;99.90;;;;;;5092403;27;20034;-67
2022/02/24 04:36:18;;;;;;;1.85;1.10;;;8.10;99.90;;;;;;5104057;28;20523;-67
2022/02/24 04:38:44;;;;;;;3.03;1.20;;;8.10;99.90;;;;;;5089043;28;20023;-67
2022/02/24 04:41:10;;;;;;;7.70;2.13;;;8.10;99.90;;;;;;5096628;28;20503;-67
2022/02/24 04:43:36;;;;;;;7.45;1.40;;;8.10;99.90;;;;;;5091292;28;20031;-67
2022/02/24 04:46:01;;;;;;;4.53;1.35;;;8.10;99.90;;;;;;5090868;28;20028;-67
2022/02/24 04:48:27;;;;;;;3.80;1.70;;;8.10;99.90;;;;;;5102725;27;20092;-67
2022/02/24 04:50:53;;;;;;;1.95;1.25;;;8.20;99.90;;;;;;5099137;28;20501;-67
2022/02/24 04:53:19;;;;;;;2.53;1.00;;;8.20;99.90;;;;;;5098110;28;20073;-68
2022/02/24 04:55:44;;;;;;;2.50;1.00;;;8.10;99.90;;;;;;5091942;28;20028;-67
2022/02/24 04:58:10;;;;;;;2.13;1.10;;;8.10;99.90;;;;;;5111948;27;20028;-67
2022/02/24 05:00:36;;;;;;;4.13;1.42;;;8.10;99.90;;;;;;5107685;27;20502;-67
2022/02/24 05:03:02;;;;;;;3.50;1.20;;;8.10;99.90;;;;;;5091608;28;20100;-67
2022/02/24 05:05:28;;;;;;;2.00;0.95;;;8.10;99.90;;;;;;5115711;27;20073;-67
2022/02/24 05:07:55;;;;;;;3.95;1.20;;;8.10;99.90;;;;;;5118998;27;20388;-67
2022/02/24 05:10:20;;;;;;;4.47;1.95;;;8.10;99.90;;;;;;5103938;27;20031;-68
2022/02/24 05:12:46;;;;;;;9.48;1.73;;;8.10;99.90;;;;;;5099844;27;20525;-67
2022/02/24 05:15:12;;;;;;;3.85;1.25;;;8.20;99.90;;;;;;5119407;27;20104;-67
2022/02/24 05:17:40;;;;;;;4.15;1.45;;;8.20;99.90;;;;;;5108744;27;20020;-67
2022/02/24 05:20:08;;;;;;;2.65;1.20;;;8.10;99.90;;;;;;5109919;27;20020;-67
2022/02/24 05:22:34;;;;;;;1.73;1.15;;;8.10;99.90;;;;;;5086046;28;20061;-67
2022/02/24 05:24:59;;;;;;;1.45;0.98;;;8.10;99.90;;;;;;5113200;27;20534;-66
2022/02/24 05:27:25;;;;;;;4.00;1.23;;;8.10;99.90;;;;;;5120843;27;20126;-66
2022/02/24 05:29:51;;;;;;;1.90;1.08;;;8.10;99.90;;;;;;5115428;27;20037;-66
2022/02/24 05:32:17;;;;;;;3.85;1.13;;;8.10;99.90;;;;;;5111176;28;20047;-71
2022/02/24 05:34:42;;;;;;;0.90;0.85;;;8.10;99.90;;;;;;5105604;27;20037;-71
2022/02/24 05:37:11;;;;;;;4.28;1.67;;;8.10;99.90;;;;;;5101143;28;20024;-71
2022/02/24 05:39:36;;;;;;;6.13;1.70;;;8.10;99.90;;;;;;5117706;28;20029;-71
2022/02/24 05:42:02;;;;;;;2.95;1.10;;;8.00;99.90;;;;;;5114787;28;20106;-71
2022/02/24 05:44:28;;;;;;;3.35;1.88;;;8.10;99.90;;;;;;5095601;28;20031;-71
2022/02/24 05:46:54;;;;;;;1.65;1.08;;;8.00;99.90;;;;;;5118042;28;20032;-71
2022/02/24 05:49:19;;;;;;;2.85;0.93;;;8.10;99.90;;;;;;5117767;28;20020;-71
2022/02/24 05:51:45;;;;;;;2.45;1.38;;;8.10;99.90;;;;;;5108318;28;20512;-70
2022/02/24 05:54:11;;;;;;;2.53;1.20;;;8.10;99.90;;;;;;5099622;28;20072;-70
2022/02/24 05:56:37;;;;;;;5.43;1.10;;;8.10;99.90;;;;;;5095467;28;20019;-70
2022/02/24 05:59:03;;;;;;;3.13;1.48;;;8.10;99.90;;;;;;5103335;28;20107;-70
2022/02/24 06:01:29;;;;;;;2.47;1.23;;;8.10;99.90;;;;;;5097634;28;20020;-70
2022/02/24 06:03:55;;;;;;;1.80;1.00;;;8.10;99.90;;;;;;5105537;28;20080;-70
2022/02/24 06:06:20;;;;;;;2.75;1.08;;;8.10;99.90;;;;;;5103375;28;20111;-70
2022/02/24 06:08:46;;;;;;;4.03;1.08;;;8.10;99.90;;;;;;5108072;28;20035;-70
2022/02/24 06:11:12;;;;;;;4.25;1.50;;;8.10;99.90;;;;;;5098697;28;20548;-73
2022/02/24 06:13:38;;;;;;;2.60;1.08;;;8.10;99.90;;;;;;5103347;28;20023;-70
2022/02/24 06:16:04;;;;;;;2.63;1.23;;;8.10;99.90;;;;;;5097654;28;20165;-70
2022/02/24 06:18:29;;;;;;;2.40;1.17;;;8.10;99.90;;;;;;5100143;28;20016;-70
2022/02/24 06:20:55;;;;;;;1.77;1.05;;;8.10;99.90;;;;;;5090321;28;20032;-70
2022/02/24 06:23:20;;;;;;;4.45;1.45;;;8.10;99.90;;;;;;5108383;28;20035;-70
2022/02/24 06:25:46;;;;;;;3.20;1.60;;;8.10;99.90;;;;;;5104880;28;20038;-70
2022/02/24 06:28:12;;;;;;;17.60;1.95;;;8.10;99.90;;;;;;5090026;28;20121;-72
2022/02/24 06:30:38;;;;;;;2.83;1.15;;;8.10;99.90;;;;;;5099588;27;20024;-70
2022/02/24 06:33:04;;;;;;;2.72;1.30;;;8.10;99.90;;;;;;5093808;28;20016;-70
2022/02/24 06:35:30;;;;;;;2.92;1.15;;;8.10;99.90;;;;;;5110588;27;20027;-70
2022/02/24 06:37:56;;;;;;;0.80;0.75;;;8.10;99.90;;;;;;5103126;28;20032;-67
2022/02/24 06:40:22;;;;;;;2.63;1.08;;;8.20;99.90;;;;;;5108162;27;20047;-70
2022/02/24 06:42:48;;;;;;;6.53;1.10;;;8.10;99.90;;;;;;5105167;28;20023;-71
2022/02/24 06:45:14;;;;;;;1.67;1.17;;;8.20;99.90;;;;;;5108238;28;20467;-70
2022/02/24 06:47:40;;;;;;;2.75;1.23;;;8.20;99.90;;;;;;5095873;28;20027;-70
2022/02/24 06:50:07;;;;;;;10.93;1.42;;;8.30;99.90;;;;;;5109342;28;20478;-70
2022/02/24 06:52:33;;;;;;;2.78;1.38;;;8.30;99.90;;;;;;5089263;28;20081;-71
2022/02/24 06:54:58;;;;;;;2.20;1.17;;;8.30;99.90;;;;;;5109072;28;20051;-70
2022/02/24 06:57:24;;;;;;;2.95;1.23;;;8.30;99.90;;;;;;5092204;28;20059;-70
2022/02/24 06:59:50;;;;;;;1.73;1.13;;;8.30;99.90;;;;;;5091105;27;20518;-70
2022/02/24 07:02:15;;;;;;;9.13;1.40;;;8.30;99.90;;;;;;5093413;28;20024;-70
2022/02/24 07:04:41;;;;;;;5.85;1.63;;;8.40;99.90;;;;;;5107339;27;20031;-70
2022/02/24 07:07:06;;;;;;;2.75;1.00;;;8.40;99.90;;;;;;5120772;27;20023;-70
2022/02/24 07:09:32;;;;;;;6.68;1.42;;;8.40;99.90;;;;;;5103333;27;20061;-70
2022/02/24 07:11:58;;;;;;;3.33;1.25;;;8.50;99.90;;;;;;5109317;27;20459;-70
2022/02/24 07:14:24;;;;;;;2.78;1.17;;;8.50;99.90;;;;;;5095774;27;20575;-72
2022/02/24 07:16:50;;;;;;;6.00;1.38;;;8.50;99.90;;;;;;5100947;27;20023;-70
2022/02/24 07:19:16;;;;;;;3.33;1.40;;;8.50;99.90;;;;;;5122300;27;20031;-70
2022/02/24 07:21:42;;;;;;;4.35;0.90;;;8.50;99.90;;;;;;5116144;27;20019;-70
2022/02/24 07:24:08;;;;;;;3.42;1.02;;;8.50;99.90;;;;;;5120851;27;20582;-70
2022/02/24 07:26:34;;;;;;;2.45;1.10;;;8.60;99.90;;;;;;5109453;28;20054;-70
2022/02/24 07:29:00;;;;;;;1.17;0.80;;;8.60;99.90;;;;;;5110298;27;20233;-70
2022/02/24 07:31:25;;;;;;;4.32;1.35;;;8.60;99.90;;;;;;5117795;27;20031;-70
2022/02/24 07:33:51;;;;;;;1.88;1.20;;;8.70;99.90;;;;;;5120129;27;20031;-70
2022/02/24 07:36:17;;;;;;;5.72;1.50;;;8.70;99.90;;;;;;5110012;27;20032;-70
2022/02/24 07:38:44;;;;;;;7.05;1.30;;;8.70;99.90;;;;;;5109041;27;20395;-70
2022/02/24 07:41:10;;;;;;;1.88;0.93;;;8.70;99.90;;;;;;5100393;27;20428;-70
2022/02/24 07:43:36;;;;;;;3.13;1.42;;;8.80;99.90;;;;;;5105590;28;20054;-70
2022/02/24 07:46:02;;;;;;;2.38;1.10;;;8.80;99.90;;;;;;5087713;28;20027;-72
2022/02/24 07:48:28;;;;;;;2.72;1.08;;;8.90;99.90;;;;;;5100017;27;20028;-70
2022/02/24 07:50:55;;;;;;;1.50;0.90;;;8.90;99.90;;;;;;5108266;27;20034;-70
2022/02/24 07:53:22;;;;;;;3.10;1.30;;;8.90;99.90;;;;;;5093784;28;20115;-71
2022/02/24 07:55:48;;;;;;;4.05;1.17;;;8.90;99.90;;;;;;5091574;27;20026;-71
2022/02/24 07:58:13;;;;;;;4.75;1.13;;;8.90;99.90;;;;;;5099789;27;20028;-70
2022/02/24 08:00:39;;;;;;;2.28;0.90;;;9.00;99.90;;;;;;5104117;27;20070;-70
2022/02/24 08:03:04;;;;;;;6.53;1.30;;;9.10;99.90;;;;;;5089164;28;20030;-69
2022/02/24 08:05:30;;;;;;;2.13;1.00;;;9.00;99.90;;;;;;5103411;27;20551;-70
2022/02/24 08:07:56;;;;;;;3.17;1.30;;;9.00;99.90;;;;;;5108798;27;20139;-70
2022/02/24 08:10:21;;;;;;;3.60;1.48;;;9.10;99.90;;;;;;5079901;28;20032;-70
2022/02/24 08:12:47;;;;;;;2.45;1.38;;;9.20;99.90;;;;;;5110380;27;20486;-70
2022/02/24 08:15:16;;;;;;;2.05;1.10;;;9.30;99.90;;;;;;5102437;28;20078;-70
2022/02/24 08:17:43;;;;;;;2.80;1.20;;;9.30;99.90;;;;;;5110088;27;20482;-70
2022/02/24 08:20:09;;;;;;;1.63;0.98;;;9.30;99.90;;;;;;5104997;27;20019;-70
2022/02/24 08:22:37;;;;;;;1.45;1.10;;;9.40;99.90;;;;;;5107781;27;20026;-70
2022/02/24 08:25:05;;;;;;;5.00;1.58;;;9.40;99.90;;;;;;5107011;27;20074;-71
2022/02/24 08:27:30;;;;;;;2.60;0.95;;;9.20;99.90;;;;;;5106608;27;20530;-71
2022/02/24 08:29:57;;;;;;;10.48;1.45;;;9.20;99.90;;;;;;5113633;27;20032;-71
2022/02/24 08:32:24;;;;;;;2.22;1.10;;;9.30;99.90;;;;;;5103685;27;20024;-71
2022/02/24 08:34:50;;;;;;;7.28;1.63;;;9.40;99.90;;;;;;5114596;27;20027;-71
2022/02/24 08:37:16;;;;;;;3.05;1.05;;;9.40;99.90;;;;;;5100518;28;20071;-71
2022/02/24 08:39:42;;;;;;;2.15;0.93;;;9.50;99.90;;;;;;5104698;27;20474;-71
2022/02/24 08:42:07;;;;;;;5.80;1.05;;;9.60;99.90;;;;;;5100669;27;20024;-72
2022/02/24 08:44:33;;;;;;;3.75;1.50;;;9.60;99.90;;;;;;5106814;27;20028;-70
2022/02/24 08:46:59;;;;;;;2.00;1.02;;;9.50;99.90;;;;;;5090255;28;20487;-70
2022/02/24 08:49:24;;;;;;;6.32;1.42;;;9.40;99.90;;;;;;5090572;28;20020;-70
2022/02/24 08:51:50;;;;;;;1.65;1.00;;;9.40;99.90;;;;;;5105637;27;20034;-70
2022/02/24 08:54:15;;;;;;;3.83;1.30;;;9.30;99.90;;;;;;5101378;28;20231;-70
2022/02/24 08:56:42;;;;;;;2.45;1.00;;;9.30;99.90;;;;;;5103725;28;20027;-70
2022/02/24 08:59:08;;;;;;;3.28;1.38;;;9.30;99.90;;;;;;5106152;28;20027;-70
2022/02/24 09:01:34;;;;;;;1.38;1.00;;;9.30;99.90;;;;;;5086800;28;20502;-70
2022/02/24 09:03:59;;;;;;;6.25;1.35;;;9.40;99.90;;;;;;5107646;27;20054;-70
2022/02/24 09:06:25;;;;;;;1.95;1.00;;;9.30;99.90;;;;;;5112271;27;20527;-70
2022/02/24 09:08:50;;;;;;;5.18;1.73;;;9.40;99.90;;;;;;5090363;28;20020;-70
2022/02/24 09:11:17;;;;;;;4.10;1.30;;;9.50;99.90;;;;;;5103315;27;20493;-71
2022/02/24 09:13:44;;;;;;;1.73;0.90;;;9.60;99.90;;;;;;5094038;28;20027;-70
2022/02/24 09:16:10;;;;;;;3.30;1.30;;;9.60;99.90;;;;;;5108005;27;20052;-70
2022/02/24 09:18:36;;;;;;;1.52;0.80;;;9.50;99.90;;;;;;5092542;28;20026;-70
2022/02/24 09:21:02;;;;;;;2.45;1.20;;;9.40;99.90;;;;;;5108738;27;20027;-70
2022/02/24 09:23:28;;;;;;;3.22;1.52;;;9.30;99.90;;;;;;5107057;27;20027;-70
2022/02/24 09:25:53;;;;;;;2.95;1.13;;;9.00;99.90;;;;;;5086150;28;20020;-70
2022/02/24 09:28:19;;;;;;;6.75;1.05;;;8.90;99.90;;;;;;5103035;28;20071;-70
2022/02/24 09:30:45;;;;;;;1.80;1.00;;;8.90;99.90;;;;;;5093194;28;20032;-70
2022/02/24 09:33:10;;;;;;;2.22;1.23;;;8.90;99.90;;;;;;5103397;28;20016;-70
2022/02/24 09:35:37;;;;;;;3.40;1.10;;;8.90;99.90;;;;;;5105382;27;20020;-70
2022/02/24 09:38:03;;;;;;;5.20;1.58;;;8.90;99.90;;;;;;5104655;28;20020;-70
2022/02/24 09:40:33;;;;;;;4.43;1.40;;;8.80;99.90;;;;;;5100536;28;20024;-69
2022/02/24 09:42:58;;;;;;;9.63;1.40;;;8.70;99.90;;;;;;5081814;28;20020;-69
2022/02/24 09:45:24;;;;;;;4.97;1.92;;;8.60;99.90;;;;;;5106121;28;20396;-69
2022/02/24 09:47:51;;;;;;;12.43;1.17;;;8.50;99.90;;;;;;5103206;28;20024;-69
2022/02/24 09:50:18;;;;;;;1.75;1.05;;;8.40;99.90;;;;;;5105661;28;20027;-69
2022/02/24 09:52:44;;;;;;;4.78;1.15;;;8.50;99.90;;;;;;5103713;28;20031;-70
2022/02/24 09:55:11;;;;;;;3.50;1.48;;;8.60;99.90;;;;;;5108931;27;20027;-70
2022/02/24 09:57:37;;;;;;;1.75;1.33;;;8.60;99.90;;;;;;5109551;27;20051;-69
2022/02/24 10:00:06;;;;;;;2.00;0.98;;;8.70;99.90;;;;;;5113790;27;20491;-69
2022/02/24 10:02:31;;;;;;;1.63;1.17;;;8.80;99.90;;;;;;5110094;27;20477;-69
2022/02/24 10:05:10;;;;;;;3.03;1.30;;;9.00;99.90;;;;;;5095067;27;20110;-69
2022/02/24 10:07:38;;;;;;;6.82;1.35;;;9.10;99.90;;;;;;5109704;27;20055;-69
2022/02/24 10:10:24;;;;;;;1.17;0.93;;;9.00;99.90;;;;;;5110509;27;20027;-69
2022/02/24 10:12:59;;;;;;;4.68;1.40;;;9.00;99.90;;;;;;5080446;28;20039;-69
2022/02/24 10:15:25;;;;;;;5.32;1.67;;;9.00;99.90;;;;;;5090217;27;20486;-69
2022/02/24 10:18:25;;;;;;;4.20;1.65;;;9.00;99.90;;;;;;5106014;27;20136;-69
2022/02/24 10:21:00;;;;;;;3.10;1.52;;;9.10;99.90;;;;;;5079175;27;20039;-70
2022/02/24 10:23:37;;;;;;;4.60;1.20;;;9.30;99.90;;;;;;5105976;27;20475;-69
2022/02/24 10:26:05;;;;;;;4.28;1.33;;;9.30;99.90;;;;;;5111281;27;20681;-69
2022/02/24 10:28:35;;;;;;;1.73;1.08;;;9.20;99.90;;;;;;5106255;27;20093;-69
2022/02/24 10:31:08;;;;;;;1.17;0.90;;;9.00;99.90;;;;;;5108593;27;20446;-69
2022/02/24 10:33:35;;;;;;;2.17;1.42;;;8.80;99.90;;;;;;5106474;28;20019;-69
2022/02/24 10:36:20;;;;;;;5.70;2.05;;;8.80;99.90;;;;;;5110838;28;20160;-69
2022/02/24 10:39:05;;;;;;;3.35;0.95;;;8.70;99.90;;;;;;5106240;27;20016;-69
2022/02/24 10:41:33;;;;;;;3.53;1.13;;;8.80;99.90;;;;;;5105422;27;20027;-69
2022/02/24 10:44:11;;;;;;;4.30;1.23;;;9.00;99.90;;;;;;5086464;28;20032;-70
2022/02/24 10:46:38;;;;;;;5.47;1.98;;;9.00;99.90;;;;;;5109006;27;20027;-69
2022/02/24 10:49:04;;;;;;;5.13;1.17;;;9.00;99.90;;;;;;5106223;27;20084;-69
2022/02/24 10:51:31;;;;;;;7.05;1.95;;;9.20;99.90;;;;;;5109523;27;20028;-69
2022/02/24 10:54:02;;;;;;;6.47;2.17;;;9.30;99.90;;;;;;5091785;28;20111;-69
2022/02/24 10:56:29;;;;;;;6.55;1.42;;;9.30;99.90;;;;;;5103858;27;20033;-69
2022/02/24 10:58:55;;;;;;;5.72;1.27;;;9.00;99.90;;;;;;5106887;27;20027;-69
2022/02/24 11:01:25;;;;;;;3.90;1.55;;;8.90;99.90;;;;;;5094399;28;20030;-69
2022/02/24 11:03:57;;;;;;;11.68;1.27;;;8.90;99.90;;;;;;5090669;27;20072;-69
2022/02/24 11:06:26;;;;;;;10.27;1.83;;;8.80;99.90;;;;;;5099409;28;20028;-69
2022/02/24 11:08:53;;;;;;;2.50;1.25;;;8.70;99.90;;;;;;5108716;27;20051;-69
2022/02/24 11:11:30;;;;;;;11.75;1.92;;;8.60;99.90;;;;;;5109237;27;20399;-69
2022/02/24 11:13:57;;;;;;;6.05;1.50;;;8.50;99.90;;;;;;5109451;27;20109;-69
2022/02/24 11:16:24;;;;;;;4.72;1.77;;;8.30;99.90;;;;;;5107661;27;20471;-69
2022/02/24 11:18:51;;;;;;;3.00;1.30;;;8.20;99.90;;;;;;5087905;28;20024;-69
2022/02/24 11:21:19;;;;;;;4.88;1.63;;;8.10;99.90;;;;;;5099963;27;20013;-69
2022/02/24 11:23:49;;;;;;;4.32;1.83;;;8.20;99.90;;;;;;5112860;27;20031;-69
2022/02/24 11:26:20;;;;;;;6.80;2.03;;;8.30;99.90;;;;;;5095199;28;20052;-69
2022/02/24 11:29:08;;;;;;;10.80;2.90;;;8.30;99.90;;;;;;5090212;28;20086;-69
2022/02/24 11:31:54;;;;;;;5.57;1.90;;;8.30;99.90;;;;;;5099518;27;20032;-69
2022/02/24 11:34:53;;;;;;;7.65;1.75;;;8.40;99.90;;;;;;5087155;28;20082;-69
2022/02/24 11:37:31;;;;;;;7.18;2.20;;;8.40;99.90;;;;;;5085991;28;20024;-69
2022/02/24 11:40:22;;;;;;;4.50;1.58;;;8.70;99.90;;;;;;5092406;28;20392;-69
2022/02/24 11:43:13;;;;;;;4.45;1.92;;;8.90;99.90;;;;;;5086285;28;20163;-70
2022/02/24 11:45:47;;;;;;;2.80;1.00;;;9.10;99.90;;;;;;5084869;28;20033;-69
2022/02/24 11:48:13;;;;;;;3.65;1.42;;;9.20;99.90;;;;;;5089764;28;20521;-69
2022/02/24 11:50:45;;;;;;;4.47;1.70;;;9.30;99.90;;;;;;5089216;28;20034;-69
2022/02/24 11:53:31;;;;;;;7.57;2.00;;;9.10;99.90;;;;;;5086412;28;20115;-69
2022/02/24 11:56:14;;;;;;;15.15;1.98;;;9.30;99.90;;;;;;5077222;28;20047;-69
2022/02/24 11:58:59;;;;;;;5.40;1.92;;;9.40;99.90;;;;;;5090775;28;20105;-69
2022/02/24 12:01:35;;;;;;;2.90;1.50;;;9.50;99.90;;;;;;5077312;28;20024;-69
2022/02/24 12:04:04;;;;;;;3.60;1.48;;;9.50;99.90;;;;;;5085959;28;20077;-69
2022/02/24 12:06:53;;;;;;;3.72;1.40;;;9.60;99.90;;;;;;5087545;28;20027;-69
2022/02/24 12:09:23;;;;;;;6.68;1.92;;;9.80;99.90;;;;;;5080196;28;20578;-69
2022/02/24 12:12:07;;;;;;;7.15;2.10;;;9.80;99.90;;;;;;5078366;28;20059;-69
2022/02/24 12:14:32;;;;;;;5.93;1.63;;;9.70;99.90;;;;;;5081302;28;20111;-69
2022/02/24 12:17:01;;;;;;;4.88;1.33;;;9.70;99.90;;;;;;5083843;28;20759;-69
2022/02/24 12:19:53;;;;;;;2.50;1.23;;;9.50;99.90;;;;;;5090023;28;20035;-69
2022/02/24 12:22:30;;;;;;;3.03;1.13;;;9.60;99.90;;;;;;5083156;28;20138;-69
2022/02/24 12:25:21;;;;;;;1.35;0.80;;;9.70;99.90;;;;;;5084079;28;20096;-69
2022/02/24 12:28:04;;;;;;;4.10;1.42;;;9.90;99.90;;;;;;5093943;28;20047;-69
2022/02/24 12:30:39;;;;;;;1.38;0.85;;;10.10;99.90;;;;;;5105039;28;20031;-69
2022/02/24 12:33:08;;;;;;;4.97;1.15;;;10.20;99.90;;;;;;5087082;28;20031;-69
2022/02/24 12:35:39;;;;;;;3.25;1.30;;;10.40;99.90;;;;;;5083806;28;20024;-70
2022/02/24 12:38:06;;;;;;;6.35;1.38;;;10.90;99.90;;;;;;5103445;28;20115;-70
2022/02/24 12:40:32;;;;;;;3.03;1.02;;;11.50;99.90;;;;;;5103647;27;20098;-70
2022/02/24 12:43:00;;;;;;;2.60;1.23;;;11.50;99.90;;;;;;5103497;27;20316;-70
2022/02/24 12:45:27;;;;;;;4.05;1.98;;;11.40;99.90;;;;;;5086448;28;20033;-70
2022/02/24 12:47:56;;;;;;;4.63;1.33;;;11.10;99.90;;;;;;5088329;28;20085;-70
2022/02/24 12:50:24;;;;;;;6.88;1.60;;;11.00;99.90;;;;;;5087326;27;20135;-70
2022/02/24 12:52:50;;;;;;;6.60;1.40;;;11.30;99.90;;;;;;5077881;28;20062;-70
2022/02/24 12:55:19;;;;;;;4.43;1.98;;;11.70;99.90;;;;;;5084852;28;20387;-70
2022/02/24 12:57:46;;;;;;;2.15;1.23;;;12.40;99.90;;;;;;5083322;28;20548;-69